Manteno, IL (60950)

1:00 AM CDT on July 29, 2015 (GMT -0500)
Willow Brook | | Change Station
CLOSE
Current Station
Personal Weather Station
Location: Bourbonnais, IL
Elevation: 662 ft
Nearby Weather Stations

Elev 662 ft 41.17 °N, 87.82 °W | Updated 5 seconds ago

Partly Cloudy
Partly Cloudy
76.1 °F
Feels Like 75 °F
N
3.5
Wind Variable Wind from WSW
Gusts 3.5 mph

Today
High -- | Low -- °F
--% Chance of Precip.
Yesterday
High -- | Low -- °F
Precip. -- in
5:43 AM 8:11 PM
Waxing Gibbous, 94% visible
Pressure 29.96 in
Visibility 7.0 miles
Clouds Mostly Cloudy 11000 ft
Heat Index 75 °F
Dew Point 75 °F
Humidity 97%
Rainfall 0.00 in
Snow Depth Not available.
UV 0.0 out of 12
Pollen 5.50 out of 12
Air Quality Not available.
Flu Activity Not available.
METAR KIKK 290535Z AUTO 00000KT 7SM BKN110 25/24 A2996 RMK AO2 LTG DSNT W AND NW T02500242

More Conditions Fewer Conditions

Pressure 29.96 in
Visibility 7.0 miles
Clouds Mostly Cloudy 11000 ft
Heat Index 75 °F
Dew Point 75 °F
Humidity 97%
Rainfall 0.00 in
Snow Depth Not available.
UV 0.0 out of 12
Pollen 5.50 out of 12
Air Quality Not available.
Flu Activity Not available.
METAR KIKK 290535Z AUTO 00000KT 7SM BKN110 25/24 A2996 RMK AO2 LTG DSNT W AND NW T02500242

More Conditions Fewer Conditions

10-Day Weather Forecast

×

Almanac

Astronomy

Jul. 29, 2015 Rise Set
Actual Time
Civil Twilight
Nautical Twilight
Astronomical Twilight
Moon
Length of Visible Light
Length of Day
Tomorrow will be .
, % of the Moon is Illuminated

Today's Extremes

State Highs State Lows

Community

WunderPhotos

Upload Photos

1,842,060 photos uploaded!

WunderBlogs® & News

Nearby

Air Quality

  Air Quality AQ Index Pollutant
Not available.

Snow Depth

Station Depth Elevation

Earthquake Activity

City Distance Mag. Time & Date
Minimum magnitude displayed is 2.5.

Coastal Water Temperatures

Place Temperature

Stations

Nearby Weather Stations

Station Location Temp. Windchill Dew Point Humidity Wind Precip. Elev Updated Type